Aviation Digital Data Service (ADDS)

Output produced by TAFs form (0149 UTC 18 October 2017)
found at http://www.aviationweather.gov/adds/tafs/
 
METAR text: KDFW 180053Z 14006KT 10SM FEW300 18/06 A3013 RMK AO2 SLP199 T01830061
Conditions at: KDFW (DALLAS/FT WORTH , TX, US) observed 0053 UTC 18 October 2017
Temperature: 18.3°C (65°F)
Dewpoint: 6.1°C (43°F) [RH = 45%]
Pressure (altimeter): 30.13 inches Hg (1020.4 mb)
[Sea-level pressure: 1019.9 mb]
Winds: from the SE (140 degrees) at 7 MPH (6 knots; 3.1 m/s)
Visibility: 10 or more miles (16+ km)
Ceiling: at least 12,000 feet AGL
Clouds: few clouds at 30000 feet AGL
Weather: no significant weather observed at this time

Forecast for: KDFW (DALLAS/FT WORTH , TX, US)
Text: KDFW 172320Z 1800/1906 16006KT P6SM SKC
Forecast period: 0000 UTC 18 October 2017 to 0600 UTC 19 October 2017
Forecast type: FROM: standard forecast or significant change
Winds: from the SSE (160 degrees) at 7 MPH (6 knots; 3.1 m/s)
Visibility: 6 or more miles (10+ km)
Clouds: clear skies
Weather: no significant weather forecast for this period